createdAt,value
2023-06-06T00:03:01.328Z,99938.22
2023-06-06T00:08:04.104Z,99946.88
2023-06-06T00:13:06.772Z,99908.13
2023-06-06T00:18:10.051Z,99942.53
2023-06-06T00:23:13.936Z,99939.13
2023-06-06T00:28:16.890Z,99927.91
2023-06-06T00:33:19.677Z,99948.56
2023-06-06T00:38:22.391Z,99959.78
2023-06-06T00:43:25.054Z,99958.03
2023-06-06T00:48:27.969Z,99963.22
2023-06-06T00:53:30.988Z,99958.84
2023-06-06T00:58:36.707Z,99968.38
2023-06-06T01:03:42.351Z,99964.88
2023-06-06T01:08:47.408Z,99966.59
2023-06-06T01:14:06.877Z,99977.78
2023-06-06T01:19:17.617Z,99974.34
2023-06-06T01:24:21.264Z,99976.91
2023-06-06T01:29:24.593Z,99965.69
2023-06-06T01:34:49.991Z,99944.13
2023-06-06T01:39:57.901Z,99975.03
2023-06-06T01:45:05.098Z,99975.00
2023-06-06T01:50:09.009Z,99981.84
2023-06-06T01:55:11.715Z,99965.41
2023-06-06T02:00:14.661Z,99978.19
2023-06-06T02:05:17.609Z,99984.19
2023-06-06T02:10:20.702Z,99981.47
2023-06-06T02:15:27.723Z,99995.19
2023-06-06T02:20:30.614Z,100001.19
2023-06-06T02:25:34.468Z,99996.78
2023-06-06T02:30:37.200Z,99992.34
2023-06-06T02:35:40.082Z,99995.69
2023-06-06T02:40:42.723Z,99987.75
2023-06-06T02:45:48.151Z,99997.78
2023-06-06T02:50:51.118Z,99989.84
2023-06-06T02:55:53.976Z,99996.53
2023-06-06T03:00:58.390Z,99989.25
2023-06-06T03:06:02.033Z,99997.00
2023-06-06T03:11:04.954Z,100004.88
2023-06-06T03:16:07.781Z,100007.91
2023-06-06T03:21:15.811Z,100011.28
2023-06-06T03:26:22.156Z,100004.44
2023-06-06T03:31:25.553Z,99998.44
2023-06-06T03:36:33.810Z,99997.81
2023-06-06T03:41:37.392Z,100000.19
2023-06-06T03:46:42.370Z,99980.72
2023-06-06T03:51:45.336Z,99980.41
2023-06-06T03:56:49.734Z,99998.91
2023-06-06T04:01:54.471Z,99994.91
2023-06-06T04:07:00.926Z,100003.97
2023-06-06T04:12:04.420Z,99996.44
2023-06-06T04:17:08.832Z,99992.75
2023-06-06T04:22:11.646Z,99986.56
2023-06-06T04:27:15.205Z,99997.56
2023-06-06T04:32:20.183Z,99992.94
2023-06-06T04:37:23.751Z,99995.09
2023-06-06T04:42:34.213Z,99997.19
2023-06-06T04:47:41.812Z,100000.88
2023-06-06T04:52:44.792Z,99986.66
2023-06-06T04:57:47.567Z,99993.88
2023-06-06T05:02:51.438Z,99983.94
2023-06-06T05:07:54.259Z,99990.06
2023-06-06T05:12:56.955Z,99982.31
2023-06-06T05:17:59.622Z,99974.31
2023-06-06T05:23:02.389Z,99987.13
2023-06-06T05:28:05.159Z,99988.66
2023-06-06T05:33:09.938Z,99987.00
2023-06-06T05:38:13.514Z,99985.47
2023-06-06T05:43:17.326Z,99979.41
2023-06-06T05:48:20.150Z,99976.56
2023-06-06T05:53:25.027Z,99970.56
2023-06-06T05:58:27.975Z,99974.38
2023-06-06T06:03:30.758Z,99965.50
2023-06-06T06:08:35.589Z,99947.25
2023-06-06T06:13:38.478Z,99961.47
2023-06-06T06:18:41.230Z,99958.03
2023-06-06T06:23:43.991Z,99955.31
2023-06-06T06:28:51.367Z,99957.31
2023-06-06T06:33:54.387Z,99955.91
2023-06-06T06:38:57.216Z,99949.13
2023-06-06T06:43:59.837Z,99949.34
2023-06-06T06:49:02.546Z,99955.03
2023-06-06T06:54:05.463Z,99942.38
2023-06-06T06:59:08.939Z,99937.78
2023-06-06T07:04:11.888Z,99941.25
2023-06-06T07:09:15.758Z,99943.97
2023-06-06T07:14:18.433Z,99941.50
2023-06-06T07:19:21.088Z,99937.06
2023-06-06T07:24:24.409Z,99935.25
2023-06-06T07:29:28.587Z,99933.34
2023-06-06T07:34:31.509Z,99942.31
2023-06-06T07:39:34.223Z,99940.09
2023-06-06T07:44:36.906Z,99933.31
2023-06-06T07:49:42.409Z,99896.38
2023-06-06T07:54:45.343Z,99922.22
2023-06-06T07:59:48.288Z,99920.97
2023-06-06T08:04:51.615Z,99913.00
2023-06-06T08:09:54.699Z,99895.38
2023-06-06T08:14:57.645Z,99915.31
2023-06-06T08:20:00.376Z,99916.31
2023-06-06T08:25:09.574Z,99912.66
2023-06-06T08:30:12.863Z,99912.75
2023-06-06T08:35:15.575Z,99907.09
2023-06-06T08:40:18.752Z,99905.03
2023-06-06T08:45:22.998Z,99899.03
2023-06-06T08:50:27.503Z,99889.63
2023-06-06T08:55:30.181Z,99877.09
2023-06-06T09:00:33.050Z,99872.94
2023-06-06T09:05:41.210Z,99866.44
2023-06-06T09:10:45.614Z,99857.34
2023-06-06T09:15:49.849Z,99846.06
2023-06-06T09:20:55.586Z,99854.50
2023-06-06T09:25:58.953Z,99850.38
2023-06-06T09:31:01.592Z,99837.81
2023-06-06T09:36:05.729Z,99842.50
2023-06-06T09:41:08.528Z,99839.50
2023-06-06T09:46:16.932Z,99854.19
2023-06-06T09:51:20.099Z,99851.66
2023-06-06T09:56:24.748Z,99852.78
2023-06-06T10:01:29.714Z,99867.38
2023-06-06T10:06:38.822Z,99861.59
2023-06-06T10:11:41.696Z,99851.13
2023-06-06T10:16:44.887Z,99849.13
2023-06-06T10:21:49.600Z,99839.00
2023-06-06T10:27:05.379Z,99845.47
2023-06-06T10:32:18.623Z,99850.69
2023-06-06T10:37:23.310Z,99842.97
2023-06-06T10:42:40.167Z,99831.06
2023-06-06T10:47:49.043Z,99850.59
2023-06-06T10:52:55.979Z,99840.22
2023-06-06T10:58:04.560Z,99833.97
2023-06-06T11:03:17.178Z,99828.72
2023-06-06T11:08:20.262Z,99814.06
2023-06-06T11:13:35.018Z,99815.69
2023-06-06T11:18:41.309Z,99820.38
2023-06-06T11:23:45.258Z,99814.22
2023-06-06T11:28:48.079Z,99811.09
2023-06-06T11:33:51.493Z,99792.59
2023-06-06T11:38:54.150Z,99812.16
2023-06-06T11:43:57.096Z,99815.88
2023-06-06T11:49:01.805Z,99795.94
2023-06-06T11:54:14.673Z,99799.59
2023-06-06T11:59:17.527Z,99787.81
2023-06-06T12:04:27.752Z,99788.06
2023-06-06T12:09:31.084Z,99789.41
2023-06-06T12:14:34.877Z,99790.03
2023-06-06T12:19:38.264Z,99779.09
2023-06-06T12:24:48.617Z,99780.81
2023-06-06T12:29:55.870Z,99774.28
2023-06-06T12:35:01.098Z,99770.53
2023-06-06T12:40:24.422Z,99766.63
2023-06-06T12:45:28.890Z,99750.03
2023-06-06T12:50:31.760Z,99759.09
2023-06-06T12:55:34.501Z,99756.84
2023-06-06T13:00:39.385Z,99749.19
2023-06-06T13:05:42.058Z,99740.78
2023-06-06T13:10:45.095Z,99711.59
2023-06-06T13:15:47.867Z,99733.78
2023-06-06T13:20:54.843Z,99734.06
2023-06-06T13:25:57.714Z,99740.00
2023-06-06T13:31:00.420Z,99734.94
2023-06-06T13:36:03.165Z,99741.91
2023-06-06T13:41:05.880Z,99740.28
2023-06-06T13:46:08.579Z,99741.38
2023-06-06T13:51:13.285Z,99739.41
2023-06-06T13:56:16.950Z,99729.31
2023-06-06T14:01:21.597Z,99723.00
2023-06-06T14:06:24.915Z,99726.56
2023-06-06T14:11:27.755Z,99695.13
2023-06-06T14:16:30.428Z,99709.97
2023-06-06T14:21:36.043Z,99717.03
2023-06-06T14:26:39.391Z,99713.34
2023-06-06T14:31:42.209Z,99710.13
2023-06-06T14:36:45.688Z,99701.50
2023-06-06T14:41:48.410Z,99709.91
2023-06-06T14:46:51.198Z,99695.88
2023-06-06T14:51:54.507Z,99681.19
2023-06-06T14:56:57.226Z,99685.25
2023-06-06T15:02:00.096Z,99687.34
2023-06-06T15:07:05.288Z,99688.06
2023-06-06T15:12:13.334Z,99687.03
2023-06-06T15:17:16.669Z,99684.78
2023-06-06T15:22:19.392Z,99675.09
2023-06-06T15:27:22.342Z,99690.47
2023-06-06T15:32:25.713Z,99699.31
2023-06-06T15:37:28.585Z,99691.31
2023-06-06T15:42:31.250Z,99696.38
2023-06-06T15:47:33.919Z,99686.03
2023-06-06T15:52:36.594Z,99694.25
2023-06-06T15:57:39.453Z,99699.75
2023-06-06T16:02:42.209Z,99695.31
2023-06-06T16:07:45.285Z,99701.88
2023-06-06T16:12:48.203Z,99699.31
2023-06-06T16:17:51.256Z,99691.47
2023-06-06T16:22:54.107Z,99703.16
2023-06-06T16:27:56.881Z,99691.53
2023-06-06T16:32:59.630Z,99690.16
2023-06-06T16:38:02.388Z,99711.19
2023-06-06T16:43:04.978Z,99721.22
2023-06-06T16:48:12.492Z,99728.94
2023-06-06T16:53:16.765Z,99729.44
2023-06-06T16:58:19.380Z,99724.75
2023-06-06T17:03:23.855Z,99733.00
2023-06-06T17:08:26.657Z,99739.13
2023-06-06T17:13:30.103Z,99743.41
2023-06-06T17:18:32.813Z,99723.97
2023-06-06T17:23:36.608Z,99752.75
2023-06-06T17:28:39.336Z,99750.47
2023-06-06T17:33:42.044Z,99759.53
2023-06-06T17:38:44.776Z,99770.00
2023-06-06T17:43:47.477Z,99760.09
2023-06-06T17:48:51.479Z,99770.06
2023-06-06T17:53:54.395Z,99781.13
2023-06-06T17:58:57.014Z,99775.03
2023-06-06T18:04:03.655Z,99785.50
2023-06-06T18:09:10.500Z,99787.28
2023-06-06T18:14:13.315Z,99788.00
2023-06-06T18:19:16.118Z,99790.22
2023-06-06T18:24:18.737Z,99792.56
2023-06-06T18:29:21.535Z,99798.50
2023-06-06T18:34:24.620Z,99797.03
2023-06-06T18:39:27.442Z,99801.78
2023-06-06T18:44:30.083Z,99801.34
2023-06-06T18:49:32.710Z,99811.28
2023-06-06T18:54:35.584Z,99795.91
2023-06-06T18:59:38.972Z,99812.75
2023-06-06T19:04:41.660Z,99811.69
2023-06-06T19:09:44.569Z,99806.16
2023-06-06T19:14:47.312Z,99814.44
2023-06-06T19:19:49.895Z,99815.94
2023-06-06T19:24:52.497Z,99812.16
2023-06-06T19:29:55.615Z,99829.94
2023-06-06T19:34:58.595Z,99820.81
2023-06-06T19:40:01.663Z,99828.94
2023-06-06T19:45:08.326Z,99839.59
2023-06-06T19:50:12.031Z,99820.06
2023-06-06T19:55:15.248Z,99823.84
2023-06-06T20:00:18.485Z,99841.19
2023-06-06T20:05:21.491Z,99836.97
2023-06-06T20:10:24.757Z,99826.00
2023-06-06T20:15:27.840Z,99840.75
2023-06-06T20:20:30.597Z,99846.50
2023-06-06T20:25:33.535Z,99843.25
2023-06-06T20:30:38.646Z,99836.50
2023-06-06T20:35:41.312Z,99843.53
2023-06-06T20:40:47.369Z,99860.00
2023-06-06T20:45:51.952Z,99857.59
2023-06-06T20:50:54.753Z,99863.97
2023-06-06T20:55:57.575Z,99875.41
2023-06-06T21:01:00.397Z,99870.19
2023-06-06T21:06:03.054Z,99878.00
2023-06-06T21:11:06.908Z,99875.53
2023-06-06T21:16:09.680Z,99873.72
2023-06-06T21:21:12.336Z,99877.31
2023-06-06T21:26:15.176Z,99862.84
2023-06-06T21:31:17.869Z,99865.59
2023-06-06T21:36:20.570Z,99884.47
2023-06-06T21:41:23.176Z,99884.53
2023-06-06T21:46:25.870Z,99882.88
2023-06-06T21:51:28.608Z,99888.28
2023-06-06T21:56:31.321Z,99886.63
2023-06-06T22:01:34.001Z,99881.59
2023-06-06T22:06:38.180Z,99877.25
2023-06-06T22:11:40.877Z,99876.41
2023-06-06T22:16:43.634Z,99882.59
2023-06-06T22:21:46.652Z,99886.19
2023-06-06T22:26:50.625Z,99875.91
2023-06-06T22:31:53.443Z,99887.19
2023-06-06T22:36:56.768Z,99886.34
2023-06-06T22:41:59.695Z,99878.66
2023-06-06T22:47:02.378Z,99872.75
2023-06-06T22:52:05.545Z,99886.59
2023-06-06T22:57:08.228Z,99886.66
2023-06-06T23:02:10.953Z,99886.78
2023-06-06T23:07:13.625Z,99887.69
2023-06-06T23:12:16.368Z,99880.00
2023-06-06T23:17:19.055Z,99859.53
2023-06-06T23:22:30.408Z,99898.31
2023-06-06T23:27:41.225Z,99907.94
2023-06-06T23:32:44.040Z,99901.97
2023-06-06T23:37:46.739Z,99907.19
2023-06-06T23:42:49.483Z,99903.00
2023-06-06T23:47:52.146Z,99889.31
2023-06-06T23:52:56.171Z,99897.94
2023-06-06T23:57:58.811Z,99904.03
